createdAt,value
2018-07-20T00:01:44.445Z,19.70
2018-07-20T00:04:15.024Z,19.70
2018-07-20T00:06:45.659Z,19.80
2018-07-20T00:09:16.386Z,19.80
2018-07-20T00:11:47.184Z,19.70
2018-07-20T00:14:17.831Z,19.70
2018-07-20T00:16:49.352Z,19.70
2018-07-20T00:19:20.255Z,19.50
2018-07-20T00:21:56.115Z,19.50
2018-07-20T00:24:26.879Z,19.40
2018-07-20T00:31:58.264Z,19.30
2018-07-20T00:34:29.632Z,19.30
2018-07-20T00:37:00.324Z,19.20
2018-07-20T00:39:30.864Z,19.20
2018-07-20T00:42:01.357Z,19.10
2018-07-20T00:44:32.095Z,19.10
2018-07-20T00:49:32.664Z,19.10
2018-07-20T00:52:03.615Z,19.00
2018-07-20T00:54:35.179Z,19.00
2018-07-20T00:57:05.917Z,19.10
2018-07-20T00:59:36.446Z,19.10
2018-07-20T01:02:06.974Z,19.10
2018-07-20T01:07:07.718Z,19.10
2018-07-20T01:09:38.316Z,19.10
2018-07-20T01:12:10.117Z,19.20
2018-07-20T01:14:41.036Z,19.20
2018-07-20T01:17:11.632Z,19.20
2018-07-20T01:19:42.212Z,19.00
2018-07-20T01:22:12.926Z,19.10
2018-07-20T01:24:43.790Z,18.90
2018-07-20T01:27:14.375Z,18.80
2018-07-20T01:29:45.254Z,18.80
2018-07-20T01:34:46.747Z,18.80
2018-07-20T01:37:18.134Z,18.80
2018-07-20T01:39:48.760Z,18.70
2018-07-20T01:42:19.387Z,18.80
2018-07-20T01:44:50.022Z,18.70
2018-07-20T01:47:20.665Z,18.60
2018-07-20T01:49:53.208Z,18.50
2018-07-20T01:52:24.260Z,18.30
2018-07-20T01:54:54.842Z,18.20
2018-07-20T01:57:25.323Z,18.00
2018-07-20T01:59:55.863Z,18.00
2018-07-20T02:02:26.729Z,18.00
2018-07-20T02:04:57.358Z,18.00
2018-07-20T02:07:27.957Z,18.00
2018-07-20T02:09:59.784Z,18.00
2018-07-20T02:12:30.549Z,18.00
2018-07-20T02:15:01.164Z,18.00
2018-07-20T02:17:31.662Z,18.00
2018-07-20T02:20:02.110Z,18.00
2018-07-20T02:22:32.664Z,18.10
2018-07-20T02:25:03.238Z,18.10
2018-07-20T02:27:34.691Z,18.20
2018-07-20T02:30:06.875Z,18.10
2018-07-20T02:32:37.461Z,18.00
2018-07-20T02:35:08.691Z,18.10
2018-07-20T02:37:39.189Z,18.10
2018-07-20T02:42:40.512Z,18.00
2018-07-20T02:45:11.245Z,18.10
2018-07-20T02:50:12.945Z,17.90
2018-07-20T02:52:43.581Z,17.80
2018-07-20T02:55:14.131Z,17.70
2018-07-20T02:57:44.741Z,17.70
2018-07-20T03:00:15.438Z,17.60
2018-07-20T03:02:46.001Z,17.60
2018-07-20T03:05:17.268Z,17.60
2018-07-20T03:07:48.984Z,17.60
2018-07-20T03:10:19.861Z,17.60
2018-07-20T03:12:50.534Z,17.60
2018-07-20T03:15:21.078Z,17.50
2018-07-20T03:17:51.760Z,17.40
2018-07-20T03:22:52.591Z,17.30
2018-07-20T03:25:23.204Z,17.20
2018-07-20T03:27:54.772Z,17.20
2018-07-20T03:30:25.516Z,17.20
2018-07-20T03:35:26.312Z,17.20
2018-07-20T03:37:56.996Z,17.20
2018-07-20T03:40:27.740Z,17.20
2018-07-20T03:42:58.483Z,17.10
2018-07-20T03:45:29.528Z,17.10
2018-07-20T03:48:01.138Z,17.00
2018-07-20T03:50:31.859Z,17.00
2018-07-20T03:53:02.610Z,17.00
2018-07-20T03:58:03.450Z,17.00
2018-07-20T04:00:34.002Z,17.00
2018-07-20T04:03:04.662Z,17.00
2018-07-20T04:05:35.542Z,17.00
2018-07-20T04:08:06.863Z,16.90
2018-07-20T04:10:37.632Z,16.90
2018-07-20T04:13:08.318Z,16.90
2018-07-20T04:15:38.854Z,17.00
2018-07-20T04:18:09.492Z,17.00
2018-07-20T04:20:40.130Z,17.00
2018-07-20T04:23:10.910Z,17.00
2018-07-20T04:25:42.057Z,17.00
2018-07-20T04:28:13.001Z,17.10
2018-07-20T04:30:43.673Z,17.10
2018-07-20T04:33:14.627Z,17.00
2018-07-20T04:35:45.134Z,17.00
2018-07-20T04:38:15.827Z,17.10
2018-07-20T04:40:46.518Z,17.10
2018-07-20T04:43:17.609Z,17.10
2018-07-20T04:45:49.120Z,17.20
2018-07-20T04:48:19.651Z,17.30
2018-07-20T04:50:50.322Z,17.40
2018-07-20T04:53:20.859Z,17.50
2018-07-20T04:55:51.570Z,17.60
2018-07-20T04:58:22.035Z,17.70
2018-07-20T05:00:52.643Z,17.70
2018-07-20T05:03:23.915Z,17.90
2018-07-20T05:05:55.244Z,17.90
2018-07-20T05:08:25.718Z,18.00
2018-07-20T05:10:56.390Z,18.10
2018-07-20T05:15:57.166Z,18.20
2018-07-20T05:18:27.817Z,18.20
2018-07-20T05:20:58.553Z,18.20
2018-07-20T05:23:30.504Z,18.30
2018-07-20T05:26:01.388Z,18.40
2018-07-20T05:28:32.608Z,18.60
2018-07-20T05:31:03.387Z,18.70
2018-07-20T05:33:34.062Z,18.90
2018-07-20T05:36:04.875Z,18.90
2018-07-20T05:38:35.897Z,19.00
2018-07-20T05:41:06.527Z,19.10
2018-07-20T05:43:37.470Z,19.20
2018-07-20T05:46:08.319Z,19.40
2018-07-20T05:48:39.064Z,19.60
2018-07-20T05:51:10.373Z,19.70
2018-07-20T05:53:41.869Z,19.90
2018-07-20T05:56:12.669Z,19.70
2018-07-20T05:58:44.160Z,19.90
2018-07-20T06:01:15.141Z,20.00
2018-07-20T06:06:16.542Z,20.30
2018-07-20T06:08:47.951Z,20.50
2018-07-20T06:11:18.938Z,20.80
2018-07-20T06:13:51.536Z,20.90
2018-07-20T06:16:22.305Z,21.10
2018-07-20T06:18:53.047Z,21.40
2018-07-20T06:21:24.267Z,21.80
2018-07-20T06:23:55.438Z,22.20
2018-07-20T06:26:26.133Z,22.50
2018-07-20T06:28:57.363Z,22.80
2018-07-20T06:31:29.001Z,23.10
2018-07-20T06:33:59.748Z,23.70
2018-07-20T06:36:30.521Z,24.00
2018-07-20T06:39:01.425Z,23.90
2018-07-20T06:41:32.191Z,24.00
2018-07-20T06:44:02.833Z,24.70
2018-07-20T06:46:33.758Z,24.80
2018-07-20T06:49:05.838Z,25.10
2018-07-20T06:51:37.448Z,25.50
2018-07-20T06:54:08.136Z,25.90
2018-07-20T06:56:38.806Z,25.90
2018-07-20T06:59:09.435Z,26.30
2018-07-20T07:04:10.827Z,26.80
2018-07-20T07:06:42.429Z,27.20
2018-07-20T07:09:14.121Z,27.50
2018-07-20T07:11:44.914Z,27.60
2018-07-20T07:14:16.357Z,27.80
2018-07-20T07:16:47.270Z,28.00
2018-07-20T07:19:17.982Z,28.20
2018-07-20T07:21:49.636Z,28.30
2018-07-20T07:24:20.691Z,28.30
2018-07-20T07:26:52.287Z,28.50
2018-07-20T07:29:22.977Z,28.80
2018-07-20T07:31:53.704Z,29.10
2018-07-20T07:34:24.574Z,29.30
2018-07-20T07:36:55.406Z,29.50
2018-07-20T07:39:26.249Z,29.60
2018-07-20T07:41:57.812Z,29.60
2018-07-20T07:44:29.639Z,29.90
2018-07-20T07:47:00.552Z,30.00
2018-07-20T07:49:31.768Z,30.50
2018-07-20T07:54:33.103Z,30.90
2018-07-20T07:57:04.149Z,30.90
2018-07-20T07:59:35.174Z,30.90
2018-07-20T08:02:06.765Z,30.70
2018-07-20T08:04:38.839Z,30.90
2018-07-20T08:07:09.773Z,31.60
2018-07-20T08:09:40.795Z,31.60
2018-07-20T08:12:11.449Z,31.60
2018-07-20T08:14:42.593Z,31.80
2018-07-20T08:17:13.926Z,32.40
2018-07-20T08:19:46.314Z,33.00
2018-07-20T08:22:19.418Z,33.10
2018-07-20T08:24:53.173Z,32.90
2018-07-20T08:27:24.265Z,32.80
2018-07-20T08:29:55.596Z,32.80
2018-07-20T08:32:28.364Z,32.60
2018-07-20T08:35:00.125Z,33.50
2018-07-20T08:37:33.095Z,33.70
2018-07-20T08:40:05.485Z,34.00
2018-07-20T08:42:36.576Z,34.60
2018-07-20T08:45:09.786Z,34.80
2018-07-20T08:47:40.926Z,35.10
2018-07-20T08:50:12.556Z,35.10
2018-07-20T08:55:15.310Z,35.50
2018-07-20T09:00:16.853Z,35.90
2018-07-20T09:02:48.058Z,35.70
2018-07-20T09:05:19.386Z,35.40
2018-07-20T09:07:51.783Z,35.50
2018-07-20T09:10:28.046Z,34.70
2018-07-20T09:13:00.144Z,35.40
2018-07-20T09:15:31.203Z,35.90
2018-07-20T09:18:03.715Z,35.90
2018-07-20T09:20:36.157Z,35.70
2018-07-20T09:23:09.467Z,35.40
2018-07-20T09:25:40.888Z,36.20
2018-07-20T09:28:13.262Z,36.10
2018-07-20T09:30:44.095Z,36.40
2018-07-20T09:33:15.803Z,37.00
2018-07-20T09:35:47.047Z,36.50
2018-07-20T09:38:18.311Z,36.90
2018-07-20T09:40:50.719Z,37.00
2018-07-20T09:43:21.649Z,37.30
2018-07-20T09:45:53.143Z,37.50
2018-07-20T09:48:24.459Z,37.50
2018-07-20T09:50:56.081Z,37.40
2018-07-20T09:53:29.641Z,37.70
2018-07-20T09:58:33.642Z,37.20
2018-07-20T10:01:04.914Z,37.50
2018-07-20T10:03:36.109Z,37.50
2018-07-20T10:06:07.616Z,37.40
2018-07-20T10:08:39.709Z,37.70
2018-07-20T10:11:11.023Z,38.30
2018-07-20T10:13:44.500Z,38.00
2018-07-20T10:16:17.332Z,38.20
2018-07-20T10:18:48.777Z,38.10
2018-07-20T10:21:20.016Z,38.20
2018-07-20T10:23:52.268Z,37.20
2018-07-20T10:26:23.643Z,38.10
2018-07-20T10:28:55.574Z,38.30
2018-07-20T10:31:27.488Z,38.40
2018-07-20T10:33:59.796Z,38.40
2018-07-20T10:36:31.071Z,38.80
2018-07-20T10:39:01.775Z,38.70
2018-07-20T10:41:32.495Z,38.60
2018-07-20T10:44:03.110Z,39.00
2018-07-20T10:46:34.545Z,39.00
2018-07-20T10:49:06.238Z,39.00
2018-07-20T10:51:36.914Z,39.00
2018-07-20T10:54:07.778Z,38.90
2018-07-20T10:56:38.546Z,39.10
2018-07-20T10:59:09.789Z,39.30
2018-07-20T11:01:41.200Z,39.40
2018-07-20T11:04:12.429Z,39.20
2018-07-20T11:06:44.855Z,39.20
2018-07-20T11:09:15.730Z,39.30
2018-07-20T11:11:47.001Z,39.20
2018-07-20T11:14:19.571Z,39.50
2018-07-20T11:16:51.433Z,39.50
2018-07-20T11:19:22.717Z,39.20
2018-07-20T11:21:56.421Z,39.30
2018-07-20T11:24:30.063Z,39.40
2018-07-20T11:27:01.364Z,39.30
2018-07-20T11:32:04.636Z,39.50
2018-07-20T11:34:36.929Z,38.60
2018-07-20T11:37:11.091Z,39.00
2018-07-20T11:39:43.185Z,39.20
2018-07-20T11:42:15.070Z,39.10
2018-07-20T11:44:47.455Z,39.00
2018-07-20T11:47:18.454Z,38.70
2018-07-20T11:49:50.239Z,38.00
2018-07-20T11:52:25.364Z,38.20
2018-07-20T11:54:57.597Z,38.60
2018-07-20T11:57:28.590Z,38.60
2018-07-20T12:00:00.616Z,38.30
2018-07-20T12:02:31.238Z,38.10
2018-07-20T12:05:01.978Z,38.40
2018-07-20T12:07:33.065Z,38.40
2018-07-20T12:10:05.232Z,39.00
2018-07-20T12:12:36.292Z,39.40
2018-07-20T12:15:07.712Z,39.50
2018-07-20T12:17:39.141Z,39.70
2018-07-20T12:20:11.341Z,39.50
2018-07-20T12:22:42.504Z,39.70
2018-07-20T12:25:14.480Z,38.80
2018-07-20T12:27:47.748Z,38.30
2018-07-20T12:30:20.503Z,37.70
2018-07-20T12:35:28.387Z,36.50
2018-07-20T12:37:59.496Z,37.70
2018-07-20T12:40:32.141Z,38.50
2018-07-20T12:43:02.932Z,39.20
2018-07-20T12:45:33.855Z,39.50
2018-07-20T12:50:38.038Z,40.30
2018-07-20T12:53:13.824Z,40.40
2018-07-20T12:55:46.276Z,40.20
2018-07-20T12:58:17.664Z,40.10
2018-07-20T13:00:48.589Z,40.20
2018-07-20T13:03:19.704Z,40.10
2018-07-20T13:05:50.705Z,38.80
2018-07-20T13:08:22.522Z,38.40
2018-07-20T13:10:53.805Z,38.40
2018-07-20T13:13:26.040Z,37.70
2018-07-20T13:15:57.746Z,38.30
2018-07-20T13:18:28.586Z,38.40
2018-07-20T13:20:59.637Z,36.00
2018-07-20T13:23:30.770Z,35.40
2018-07-20T13:26:01.610Z,36.40
2018-07-20T13:28:32.957Z,37.30
2018-07-20T13:31:04.159Z,37.20
2018-07-20T13:33:37.857Z,36.90
2018-07-20T13:36:08.861Z,36.60
2018-07-20T13:38:39.661Z,35.60
2018-07-20T13:41:11.623Z,35.60
2018-07-20T13:43:43.379Z,34.90
2018-07-20T13:46:14.467Z,35.20
2018-07-20T13:48:45.867Z,35.30
2018-07-20T13:51:18.541Z,35.50
2018-07-20T13:53:49.473Z,35.50
2018-07-20T13:56:21.431Z,35.00
2018-07-20T13:58:53.370Z,34.50
2018-07-20T14:01:26.772Z,33.90
2018-07-20T14:03:58.414Z,34.10
2018-07-20T14:06:31.284Z,34.60
2018-07-20T14:09:06.615Z,35.30
2018-07-20T14:11:37.763Z,34.30
2018-07-20T14:14:09.009Z,34.20
2018-07-20T14:16:40.747Z,34.10
2018-07-20T14:19:11.803Z,34.80
2018-07-20T14:21:42.766Z,34.50
2018-07-20T14:24:15.032Z,34.40
2018-07-20T14:26:45.817Z,34.70
2018-07-20T14:29:17.261Z,34.50
2018-07-20T14:31:52.291Z,34.20
2018-07-20T14:34:23.537Z,34.00
2018-07-20T14:36:54.439Z,33.60
2018-07-20T14:39:26.289Z,33.40
2018-07-20T14:41:58.026Z,33.90
2018-07-20T14:44:29.471Z,33.70
2018-07-20T14:47:01.176Z,33.10
2018-07-20T14:49:31.880Z,33.20
2018-07-20T14:52:02.806Z,33.60
2018-07-20T14:54:33.868Z,33.70
2018-07-20T14:57:05.839Z,34.20
2018-07-20T14:59:37.701Z,33.70
2018-07-20T15:02:08.491Z,34.00
2018-07-20T15:04:39.843Z,33.40
2018-07-20T15:07:11.114Z,33.60
2018-07-20T15:09:42.057Z,33.40
2018-07-20T15:12:12.995Z,33.30
2018-07-20T15:14:44.545Z,33.40
2018-07-20T15:17:17.816Z,33.50
2018-07-20T15:19:48.647Z,33.70
2018-07-20T15:22:20.292Z,33.80
2018-07-20T15:24:51.085Z,33.20
2018-07-20T15:27:21.780Z,33.00
2018-07-20T15:29:52.522Z,33.30
2018-07-20T15:32:23.947Z,33.00
2018-07-20T15:34:55.634Z,33.00
2018-07-20T15:37:27.584Z,33.00
2018-07-20T15:39:58.724Z,32.70
2018-07-20T15:42:29.719Z,32.80
2018-07-20T15:45:01.011Z,32.20
2018-07-20T15:47:32.567Z,32.40
2018-07-20T15:50:04.545Z,32.40
2018-07-20T15:55:09.659Z,32.30
2018-07-20T15:57:42.753Z,32.50
2018-07-20T16:00:14.678Z,32.30
2018-07-20T16:02:47.691Z,32.10
2018-07-20T16:05:24.457Z,32.20
2018-07-20T16:07:59.445Z,32.00
2018-07-20T16:10:33.249Z,31.80
2018-07-20T16:13:05.866Z,32.00
2018-07-20T16:15:40.884Z,31.90
2018-07-20T16:18:14.155Z,31.60
2018-07-20T16:20:46.605Z,31.70
2018-07-20T16:23:18.707Z,31.60
2018-07-20T16:25:50.319Z,31.70
2018-07-20T16:28:22.875Z,31.40
2018-07-20T16:30:56.883Z,31.30
2018-07-20T16:33:28.385Z,31.50
2018-07-20T16:36:00.647Z,31.30
2018-07-20T16:38:32.324Z,31.50
2018-07-20T16:41:03.913Z,31.50
2018-07-20T16:43:35.583Z,31.40
2018-07-20T16:46:07.768Z,31.20
2018-07-20T16:48:40.385Z,31.20
2018-07-20T16:51:13.602Z,31.10
2018-07-20T16:53:45.035Z,31.00
2018-07-20T16:56:15.785Z,31.00
2018-07-20T16:58:48.322Z,31.10
2018-07-20T17:01:20.180Z,31.10
2018-07-20T17:03:51.965Z,31.20
2018-07-20T17:06:23.911Z,31.00
2018-07-20T17:08:55.910Z,30.90
2018-07-20T17:11:26.687Z,30.90
2018-07-20T17:13:57.715Z,30.70
2018-07-20T17:16:29.508Z,30.60
2018-07-20T17:19:01.063Z,30.70
2018-07-20T17:21:33.741Z,30.50
2018-07-20T17:24:05.065Z,30.50
2018-07-20T17:26:37.086Z,30.50
2018-07-20T17:29:09.101Z,30.30
2018-07-20T17:31:40.213Z,30.20
2018-07-20T17:39:14.381Z,30.10
2018-07-20T17:41:46.959Z,30.20
2018-07-20T17:44:17.906Z,29.90
2018-07-20T17:46:48.999Z,29.90
2018-07-20T17:49:21.428Z,29.80
2018-07-20T17:51:53.451Z,29.90
2018-07-20T17:54:27.040Z,29.80
2018-07-20T17:56:58.165Z,29.70
2018-07-20T17:59:29.449Z,29.70
2018-07-20T18:02:01.299Z,29.60
2018-07-20T18:04:33.811Z,29.60
2018-07-20T18:07:07.388Z,29.60
2018-07-20T18:09:40.290Z,29.50
2018-07-20T18:12:19.106Z,29.40
2018-07-20T18:14:53.079Z,29.30
2018-07-20T18:19:55.942Z,29.40
2018-07-20T18:27:31.267Z,28.80
2018-07-20T18:30:01.876Z,28.40
2018-07-20T18:32:33.420Z,28.20
2018-07-20T18:35:05.022Z,28.00
2018-07-20T18:37:36.649Z,28.00
2018-07-20T18:40:09.959Z,28.00
2018-07-20T18:42:41.862Z,27.80
2018-07-20T18:45:12.646Z,27.60
2018-07-20T18:47:44.697Z,27.50
2018-07-20T18:50:17.352Z,27.40
2018-07-20T18:52:48.203Z,27.30
2018-07-20T18:55:20.217Z,27.30
2018-07-20T18:57:52.556Z,27.10
2018-07-20T19:00:23.317Z,27.10
2018-07-20T19:02:54.934Z,27.00
2018-07-20T19:05:26.463Z,26.80
2018-07-20T19:10:27.754Z,26.70
2018-07-20T19:12:59.763Z,26.50
2018-07-20T19:15:31.537Z,26.40
2018-07-20T19:18:02.555Z,26.10
2018-07-20T19:20:34.524Z,25.90
2018-07-20T19:23:05.715Z,25.80
2018-07-20T19:25:38.145Z,25.80
2018-07-20T19:28:11.465Z,25.80
2018-07-20T19:30:43.381Z,25.70
2018-07-20T19:33:15.446Z,25.60
2018-07-20T19:35:47.312Z,25.50
2018-07-20T19:38:18.661Z,25.50
2018-07-20T19:40:49.534Z,25.40
2018-07-20T19:43:21.529Z,25.30
2018-07-20T19:45:54.167Z,25.30
2018-07-20T19:48:25.512Z,25.30
2018-07-20T19:50:58.840Z,25.10
2018-07-20T19:53:30.047Z,25.00
2018-07-20T19:56:01.934Z,25.10
2018-07-20T19:58:33.445Z,25.00
2018-07-20T20:01:06.109Z,24.90
2018-07-20T20:03:39.009Z,24.70
2018-07-20T20:06:10.605Z,24.60
2018-07-20T20:08:42.096Z,24.60
2018-07-20T20:11:15.864Z,24.40
2018-07-20T20:13:47.085Z,24.30
2018-07-20T20:16:20.155Z,24.10
2018-07-20T20:18:52.814Z,24.00
2018-07-20T20:21:27.238Z,23.80
2018-07-20T20:23:58.874Z,23.80
2018-07-20T20:26:30.360Z,23.70
2018-07-20T20:29:01.968Z,23.70
2018-07-20T20:31:36.397Z,23.60
2018-07-20T20:34:09.141Z,23.40
2018-07-20T20:36:40.376Z,23.50
2018-07-20T20:39:13.501Z,23.50
2018-07-20T20:41:45.152Z,23.30
2018-07-20T20:44:16.148Z,23.10
2018-07-20T20:46:48.563Z,23.10
2018-07-20T20:49:20.879Z,22.90
2018-07-20T20:51:52.155Z,22.90
2018-07-20T20:54:23.396Z,22.80
2018-07-20T20:56:54.566Z,22.90
2018-07-20T20:59:25.581Z,23.00
2018-07-20T21:01:56.909Z,23.00
2018-07-20T21:04:28.573Z,23.00
2018-07-20T21:06:59.437Z,23.00
2018-07-20T21:09:30.181Z,22.90
2018-07-20T21:12:01.079Z,23.00
2018-07-20T21:14:31.737Z,23.00
2018-07-20T21:17:03.396Z,23.00
2018-07-20T21:19:34.452Z,22.80
2018-07-20T21:22:06.569Z,22.70
2018-07-20T21:24:37.787Z,22.60
2018-07-20T21:27:08.552Z,22.60
2018-07-20T21:29:40.656Z,22.60
2018-07-20T21:32:17.805Z,22.60
2018-07-20T21:34:51.655Z,22.60
2018-07-20T21:37:24.001Z,22.60
2018-07-20T21:39:55.315Z,22.60
2018-07-20T21:42:26.917Z,22.50
2018-07-20T21:44:57.901Z,22.40
2018-07-20T21:47:29.377Z,22.20
2018-07-20T21:50:00.532Z,22.30
2018-07-20T21:52:31.745Z,22.40
2018-07-20T21:55:03.535Z,22.60
2018-07-20T21:57:34.748Z,22.70
2018-07-20T22:00:12.882Z,22.70
2018-07-20T22:02:44.487Z,22.80
2018-07-20T22:05:16.194Z,22.90
2018-07-20T22:07:59.222Z,22.90
2018-07-20T22:10:32.161Z,22.80
2018-07-20T22:13:09.497Z,22.70
2018-07-20T22:15:40.889Z,22.50
2018-07-20T22:20:42.631Z,22.30
2018-07-20T22:23:13.981Z,22.20
2018-07-20T22:28:16.854Z,22.30
2018-07-20T22:30:47.762Z,22.20
2018-07-20T22:33:19.946Z,22.10
2018-07-20T22:35:51.829Z,22.00
2018-07-20T22:38:23.604Z,22.00
2018-07-20T22:40:54.723Z,21.90
2018-07-20T22:43:27.769Z,21.90
2018-07-20T22:45:59.420Z,21.90
2018-07-20T22:48:31.510Z,21.90
2018-07-20T22:51:05.123Z,21.80
2018-07-20T22:53:37.991Z,21.80
2018-07-20T22:56:09.543Z,21.60
2018-07-20T22:58:46.243Z,21.60
2018-07-20T23:01:20.768Z,21.50
2018-07-20T23:03:55.968Z,21.40
2018-07-20T23:06:27.696Z,21.30
2018-07-20T23:08:59.043Z,21.10
2018-07-20T23:11:33.120Z,21.10
2018-07-20T23:14:06.146Z,20.90
2018-07-20T23:16:38.608Z,20.90
2018-07-20T23:19:11.209Z,20.90
2018-07-20T23:21:42.332Z,20.90
2018-07-20T23:24:13.859Z,20.90
2018-07-20T23:26:46.492Z,20.90
2018-07-20T23:29:17.905Z,20.90
2018-07-20T23:31:48.799Z,20.90
2018-07-20T23:34:19.592Z,20.90
2018-07-20T23:36:50.200Z,20.90
2018-07-20T23:39:20.877Z,20.80
2018-07-20T23:41:53.120Z,20.70
2018-07-20T23:44:24.579Z,20.60
2018-07-20T23:46:55.608Z,20.50
2018-07-20T23:49:26.274Z,20.50
2018-07-20T23:51:57.080Z,20.50
2018-07-20T23:54:28.309Z,20.50
2018-07-20T23:56:58.955Z,20.40
2018-07-20T23:59:29.829Z,20.40
